sensor_id;sensor_type;location;lat;lon;timestamp;P1;durP1;ratioP1;P2;durP2;ratioP2
20997;SDS011;10657;51.276;6.390;2023-09-19T00:00:46;13.30;;;2.60;;
20997;SDS011;10657;51.276;6.390;2023-09-19T00:03:14;8.95;;;1.98;;
20997;SDS011;10657;51.276;6.390;2023-09-19T00:05:42;9.40;;;2.30;;
20997;SDS011;10657;51.276;6.390;2023-09-19T00:08:12;9.30;;;1.80;;
20997;SDS011;10657;51.276;6.390;2023-09-19T00:10:40;10.30;;;2.05;;
20997;SDS011;10657;51.276;6.390;2023-09-19T00:13:08;12.98;;;2.53;;
20997;SDS011;10657;51.276;6.390;2023-09-19T00:15:40;9.50;;;2.20;;
20997;SDS011;10657;51.276;6.390;2023-09-19T00:18:14;10.95;;;2.22;;
20997;SDS011;10657;51.276;6.390;2023-09-19T00:20:45;10.52;;;1.92;;
20997;SDS011;10657;51.276;6.390;2023-09-19T00:23:18;9.23;;;2.10;;
20997;SDS011;10657;51.276;6.390;2023-09-19T00:25:46;11.68;;;2.40;;
20997;SDS011;10657;51.276;6.390;2023-09-19T00:28:12;7.45;;;2.00;;
20997;SDS011;10657;51.276;6.390;2023-09-19T00:30:42;10.68;;;2.28;;
20997;SDS011;10657;51.276;6.390;2023-09-19T00:33:09;8.82;;;1.85;;
20997;SDS011;10657;51.276;6.390;2023-09-19T00:35:37;12.40;;;2.38;;
20997;SDS011;10657;51.276;6.390;2023-09-19T00:38:04;12.13;;;2.33;;
20997;SDS011;10657;51.276;6.390;2023-09-19T00:40:32;11.55;;;2.30;;
20997;SDS011;10657;51.276;6.390;2023-09-19T00:42:59;10.52;;;2.10;;
20997;SDS011;10657;51.276;6.390;2023-09-19T00:45:26;8.48;;;1.75;;
20997;SDS011;10657;51.276;6.390;2023-09-19T00:47:54;17.25;;;2.78;;
20997;SDS011;10657;51.276;6.390;2023-09-19T00:50:22;12.40;;;2.38;;
20997;SDS011;10657;51.276;6.390;2023-09-19T00:52:53;16.30;;;2.70;;
20997;SDS011;10657;51.276;6.390;2023-09-19T00:55:22;12.55;;;2.08;;
20997;SDS011;10657;51.276;6.390;2023-09-19T00:57:50;11.25;;;2.40;;
20997;SDS011;10657;51.276;6.390;2023-09-19T01:00:17;10.88;;;2.13;;
20997;SDS011;10657;51.276;6.390;2023-09-19T01:02:46;12.48;;;2.30;;
20997;SDS011;10657;51.276;6.390;2023-09-19T01:05:14;12.75;;;2.55;;
20997;SDS011;10657;51.276;6.390;2023-09-19T01:07:41;8.13;;;2.20;;
20997;SDS011;10657;51.276;6.390;2023-09-19T01:10:12;13.55;;;2.17;;
20997;SDS011;10657;51.276;6.390;2023-09-19T01:12:51;9.93;;;2.42;;
20997;SDS011;10657;51.276;6.390;2023-09-19T01:15:51;9.85;;;2.00;;
20997;SDS011;10657;51.276;6.390;2023-09-19T01:21:44;10.85;;;2.30;;
20997;SDS011;10657;51.276;6.390;2023-09-19T01:29:46;9.75;;;2.22;;
20997;SDS011;10657;51.276;6.390;2023-09-19T01:32:19;11.35;;;2.20;;
20997;SDS011;10657;51.276;6.390;2023-09-19T01:34:49;12.13;;;2.55;;
20997;SDS011;10657;51.276;6.390;2023-09-19T01:37:22;12.40;;;2.40;;
20997;SDS011;10657;51.276;6.390;2023-09-19T01:40:02;11.77;;;2.60;;
20997;SDS011;10657;51.276;6.390;2023-09-19T01:47:54;11.90;;;2.53;;
20997;SDS011;10657;51.276;6.390;2023-09-19T01:53:12;11.38;;;2.58;;
20997;SDS011;10657;51.276;6.390;2023-09-19T01:55:46;8.48;;;2.15;;
20997;SDS011;10657;51.276;6.390;2023-09-19T01:58:27;12.20;;;2.75;;
20997;SDS011;10657;51.276;6.390;2023-09-19T02:01:01;13.02;;;2.95;;
20997;SDS011;10657;51.276;6.390;2023-09-19T02:03:33;8.52;;;1.95;;
20997;SDS011;10657;51.276;6.390;2023-09-19T02:06:01;12.10;;;2.00;;
20997;SDS011;10657;51.276;6.390;2023-09-19T02:08:29;11.77;;;2.53;;
20997;SDS011;10657;51.276;6.390;2023-09-19T02:10:59;9.57;;;2.08;;
20997;SDS011;10657;51.276;6.390;2023-09-19T02:13:26;11.60;;;2.55;;
20997;SDS011;10657;51.276;6.390;2023-09-19T02:15:54;10.07;;;2.17;;
20997;SDS011;10657;51.276;6.390;2023-09-19T02:18:22;8.60;;;2.20;;
20997;SDS011;10657;51.276;6.390;2023-09-19T02:20:48;11.00;;;2.60;;
20997;SDS011;10657;51.276;6.390;2023-09-19T02:23:17;10.40;;;2.38;;
20997;SDS011;10657;51.276;6.390;2023-09-19T02:25:51;8.60;;;2.13;;
20997;SDS011;10657;51.276;6.390;2023-09-19T02:28:18;8.85;;;2.13;;
20997;SDS011;10657;51.276;6.390;2023-09-19T02:30:48;9.40;;;2.10;;
20997;SDS011;10657;51.276;6.390;2023-09-19T02:33:15;12.23;;;2.20;;
20997;SDS011;10657;51.276;6.390;2023-09-19T02:35:43;14.30;;;2.20;;
20997;SDS011;10657;51.276;6.390;2023-09-19T02:38:11;9.13;;;2.03;;
20997;SDS011;10657;51.276;6.390;2023-09-19T02:40:38;10.10;;;2.45;;
20997;SDS011;10657;51.276;6.390;2023-09-19T02:43:05;8.77;;;2.03;;
20997;SDS011;10657;51.276;6.390;2023-09-19T02:45:33;10.13;;;2.15;;
20997;SDS011;10657;51.276;6.390;2023-09-19T02:47:59;12.23;;;2.15;;
20997;SDS011;10657;51.276;6.390;2023-09-19T02:50:26;10.00;;;2.17;;
20997;SDS011;10657;51.276;6.390;2023-09-19T02:52:53;10.25;;;2.28;;
20997;SDS011;10657;51.276;6.390;2023-09-19T02:55:20;10.48;;;2.17;;
20997;SDS011;10657;51.276;6.390;2023-09-19T02:57:48;8.98;;;2.15;;
20997;SDS011;10657;51.276;6.390;2023-09-19T03:00:17;15.88;;;2.03;;
20997;SDS011;10657;51.276;6.390;2023-09-19T03:02:48;8.52;;;1.98;;
20997;SDS011;10657;51.276;6.390;2023-09-19T03:05:22;8.18;;;2.20;;
20997;SDS011;10657;51.276;6.390;2023-09-19T03:07:49;10.23;;;2.13;;
20997;SDS011;10657;51.276;6.390;2023-09-19T03:10:19;10.00;;;2.20;;
20997;SDS011;10657;51.276;6.390;2023-09-19T03:12:47;8.55;;;2.40;;
20997;SDS011;10657;51.276;6.390;2023-09-19T03:15:14;8.80;;;1.95;;
20997;SDS011;10657;51.276;6.390;2023-09-19T03:17:45;7.90;;;1.85;;
20997;SDS011;10657;51.276;6.390;2023-09-19T03:20:14;9.35;;;1.60;;
20997;SDS011;10657;51.276;6.390;2023-09-19T03:22:44;8.45;;;2.20;;
20997;SDS011;10657;51.276;6.390;2023-09-19T03:25:12;8.05;;;1.77;;
20997;SDS011;10657;51.276;6.390;2023-09-19T03:27:39;11.45;;;2.00;;
20997;SDS011;10657;51.276;6.390;2023-09-19T03:30:06;12.50;;;2.50;;
20997;SDS011;10657;51.276;6.390;2023-09-19T03:32:35;7.22;;;1.60;;
20997;SDS011;10657;51.276;6.390;2023-09-19T03:35:02;8.75;;;1.95;;
20997;SDS011;10657;51.276;6.390;2023-09-19T03:37:31;8.95;;;1.98;;
20997;SDS011;10657;51.276;6.390;2023-09-19T03:39:59;9.88;;;2.10;;
20997;SDS011;10657;51.276;6.390;2023-09-19T03:42:31;12.20;;;2.20;;
20997;SDS011;10657;51.276;6.390;2023-09-19T03:44:58;17.95;;;2.80;;
20997;SDS011;10657;51.276;6.390;2023-09-19T03:47:26;8.60;;;2.00;;
20997;SDS011;10657;51.276;6.390;2023-09-19T03:49:53;7.93;;;2.22;;
20997;SDS011;10657;51.276;6.390;2023-09-19T03:52:20;9.27;;;2.35;;
20997;SDS011;10657;51.276;6.390;2023-09-19T03:54:47;7.60;;;2.05;;
20997;SDS011;10657;51.276;6.390;2023-09-19T03:57:13;11.98;;;2.10;;
20997;SDS011;10657;51.276;6.390;2023-09-19T03:59:42;8.20;;;1.60;;
20997;SDS011;10657;51.276;6.390;2023-09-19T04:02:12;12.45;;;2.42;;
20997;SDS011;10657;51.276;6.390;2023-09-19T04:04:48;7.32;;;1.58;;
20997;SDS011;10657;51.276;6.390;2023-09-19T04:07:17;8.55;;;2.00;;
20997;SDS011;10657;51.276;6.390;2023-09-19T04:09:45;7.72;;;1.70;;
20997;SDS011;10657;51.276;6.390;2023-09-19T04:12:12;8.60;;;2.05;;
20997;SDS011;10657;51.276;6.390;2023-09-19T04:14:39;13.57;;;2.63;;
20997;SDS011;10657;51.276;6.390;2023-09-19T04:17:05;10.88;;;2.38;;
20997;SDS011;10657;51.276;6.390;2023-09-19T04:19:36;10.27;;;2.17;;
20997;SDS011;10657;51.276;6.390;2023-09-19T04:22:03;7.25;;;2.00;;
20997;SDS011;10657;51.276;6.390;2023-09-19T04:24:30;7.47;;;1.70;;
20997;SDS011;10657;51.276;6.390;2023-09-19T04:26:58;25.25;;;2.50;;
20997;SDS011;10657;51.276;6.390;2023-09-19T04:29:27;10.60;;;2.00;;
20997;SDS011;10657;51.276;6.390;2023-09-19T04:31:56;12.00;;;2.17;;
20997;SDS011;10657;51.276;6.390;2023-09-19T04:34:25;7.93;;;2.03;;
20997;SDS011;10657;51.276;6.390;2023-09-19T04:36:53;8.18;;;2.22;;
20997;SDS011;10657;51.276;6.390;2023-09-19T04:39:20;9.18;;;1.90;;
20997;SDS011;10657;51.276;6.390;2023-09-19T04:41:47;13.50;;;2.55;;
20997;SDS011;10657;51.276;6.390;2023-09-19T04:44:14;14.30;;;2.20;;
20997;SDS011;10657;51.276;6.390;2023-09-19T04:46:41;12.35;;;2.13;;
20997;SDS011;10657;51.276;6.390;2023-09-19T04:49:08;9.82;;;2.03;;
20997;SDS011;10657;51.276;6.390;2023-09-19T04:51:35;13.95;;;2.47;;
20997;SDS011;10657;51.276;6.390;2023-09-19T04:54:03;11.52;;;2.30;;
20997;SDS011;10657;51.276;6.390;2023-09-19T04:56:29;13.90;;;2.60;;
20997;SDS011;10657;51.276;6.390;2023-09-19T04:58:58;10.38;;;2.75;;
20997;SDS011;10657;51.276;6.390;2023-09-19T05:01:26;10.00;;;2.38;;
20997;SDS011;10657;51.276;6.390;2023-09-19T05:03:53;13.27;;;2.90;;
20997;SDS011;10657;51.276;6.390;2023-09-19T05:06:20;9.55;;;2.25;;
20997;SDS011;10657;51.276;6.390;2023-09-19T05:08:47;8.77;;;1.63;;
20997;SDS011;10657;51.276;6.390;2023-09-19T05:11:18;11.48;;;2.33;;
20997;SDS011;10657;51.276;6.390;2023-09-19T05:13:47;9.80;;;1.80;;
20997;SDS011;10657;51.276;6.390;2023-09-19T05:16:13;10.48;;;2.22;;
20997;SDS011;10657;51.276;6.390;2023-09-19T05:18:40;11.07;;;2.78;;
20997;SDS011;10657;51.276;6.390;2023-09-19T05:21:07;11.00;;;2.60;;
20997;SDS011;10657;51.276;6.390;2023-09-19T05:23:34;9.68;;;2.53;;
20997;SDS011;10657;51.276;6.390;2023-09-19T05:26:00;16.52;;;3.13;;
20997;SDS011;10657;51.276;6.390;2023-09-19T05:28:27;11.85;;;2.40;;
20997;SDS011;10657;51.276;6.390;2023-09-19T05:30:55;15.02;;;2.60;;
20997;SDS011;10657;51.276;6.390;2023-09-19T05:33:22;13.82;;;2.65;;
20997;SDS011;10657;51.276;6.390;2023-09-19T05:35:49;12.23;;;2.40;;
20997;SDS011;10657;51.276;6.390;2023-09-19T05:38:15;22.90;;;3.28;;
20997;SDS011;10657;51.276;6.390;2023-09-19T05:40:45;13.98;;;2.92;;
20997;SDS011;10657;51.276;6.390;2023-09-19T05:43:12;16.92;;;2.60;;
20997;SDS011;10657;51.276;6.390;2023-09-19T05:45:40;13.65;;;2.38;;
20997;SDS011;10657;51.276;6.390;2023-09-19T05:48:11;12.93;;;2.63;;
20997;SDS011;10657;51.276;6.390;2023-09-19T05:50:43;9.20;;;2.60;;
20997;SDS011;10657;51.276;6.390;2023-09-19T05:53:12;12.80;;;2.70;;
20997;SDS011;10657;51.276;6.390;2023-09-19T05:55:41;13.18;;;2.53;;
20997;SDS011;10657;51.276;6.390;2023-09-19T05:58:08;15.40;;;2.55;;
20997;SDS011;10657;51.276;6.390;2023-09-19T06:00:36;10.68;;;2.47;;
20997;SDS011;10657;51.276;6.390;2023-09-19T06:03:05;9.68;;;2.10;;
20997;SDS011;10657;51.276;6.390;2023-09-19T06:05:32;8.50;;;1.90;;
20997;SDS011;10657;51.276;6.390;2023-09-19T06:07:59;12.75;;;2.25;;
20997;SDS011;10657;51.276;6.390;2023-09-19T06:10:27;11.60;;;2.42;;
20997;SDS011;10657;51.276;6.390;2023-09-19T06:12:55;10.88;;;2.10;;
20997;SDS011;10657;51.276;6.390;2023-09-19T06:15:24;10.93;;;2.08;;
20997;SDS011;10657;51.276;6.390;2023-09-19T06:17:54;13.30;;;2.47;;
20997;SDS011;10657;51.276;6.390;2023-09-19T06:20:22;11.95;;;2.58;;
20997;SDS011;10657;51.276;6.390;2023-09-19T06:22:50;9.73;;;2.00;;
20997;SDS011;10657;51.276;6.390;2023-09-19T06:25:17;14.73;;;2.17;;
20997;SDS011;10657;51.276;6.390;2023-09-19T06:27:48;12.23;;;2.05;;
20997;SDS011;10657;51.276;6.390;2023-09-19T06:30:18;8.55;;;1.98;;
20997;SDS011;10657;51.276;6.390;2023-09-19T06:32:45;8.55;;;1.90;;
20997;SDS011;10657;51.276;6.390;2023-09-19T06:35:13;12.45;;;2.17;;
20997;SDS011;10657;51.276;6.390;2023-09-19T06:37:41;17.00;;;3.38;;
20997;SDS011;10657;51.276;6.390;2023-09-19T06:40:12;17.25;;;4.63;;
20997;SDS011;10657;51.276;6.390;2023-09-19T06:42:41;9.55;;;1.83;;
20997;SDS011;10657;51.276;6.390;2023-09-19T06:45:10;11.15;;;2.03;;
20997;SDS011;10657;51.276;6.390;2023-09-19T06:47:39;12.50;;;2.25;;
20997;SDS011;10657;51.276;6.390;2023-09-19T06:50:06;7.90;;;1.90;;
20997;SDS011;10657;51.276;6.390;2023-09-19T06:52:40;12.27;;;2.08;;
20997;SDS011;10657;51.276;6.390;2023-09-19T06:55:07;12.30;;;2.22;;
20997;SDS011;10657;51.276;6.390;2023-09-19T06:57:36;12.27;;;2.08;;
20997;SDS011;10657;51.276;6.390;2023-09-19T07:00:02;11.63;;;2.00;;
20997;SDS011;10657;51.276;6.390;2023-09-19T07:02:35;12.75;;;2.42;;
20997;SDS011;10657;51.276;6.390;2023-09-19T07:05:02;10.63;;;2.72;;
20997;SDS011;10657;51.276;6.390;2023-09-19T07:07:29;8.60;;;1.67;;
20997;SDS011;10657;51.276;6.390;2023-09-19T07:09:56;9.70;;;2.03;;
20997;SDS011;10657;51.276;6.390;2023-09-19T07:12:22;11.00;;;2.08;;
20997;SDS011;10657;51.276;6.390;2023-09-19T07:14:49;15.63;;;2.45;;
20997;SDS011;10657;51.276;6.390;2023-09-19T07:17:16;10.43;;;1.70;;
20997;SDS011;10657;51.276;6.390;2023-09-19T07:19:45;11.40;;;2.00;;
20997;SDS011;10657;51.276;6.390;2023-09-19T07:22:14;9.02;;;1.88;;
20997;SDS011;10657;51.276;6.390;2023-09-19T07:24:41;11.07;;;2.00;;
20997;SDS011;10657;51.276;6.390;2023-09-19T07:27:07;11.43;;;1.70;;
20997;SDS011;10657;51.276;6.390;2023-09-19T07:29:35;12.68;;;2.22;;
20997;SDS011;10657;51.276;6.390;2023-09-19T07:32:01;11.07;;;2.10;;
20997;SDS011;10657;51.276;6.390;2023-09-19T07:34:28;8.93;;;1.65;;
20997;SDS011;10657;51.276;6.390;2023-09-19T07:36:55;13.85;;;2.00;;
20997;SDS011;10657;51.276;6.390;2023-09-19T07:39:22;10.52;;;2.15;;
20997;SDS011;10657;51.276;6.390;2023-09-19T07:41:49;8.75;;;1.80;;
20997;SDS011;10657;51.276;6.390;2023-09-19T07:44:16;11.75;;;2.42;;
20997;SDS011;10657;51.276;6.390;2023-09-19T07:46:43;9.95;;;2.03;;
20997;SDS011;10657;51.276;6.390;2023-09-19T07:49:10;12.75;;;2.00;;
20997;SDS011;10657;51.276;6.390;2023-09-19T07:51:38;8.27;;;1.70;;
20997;SDS011;10657;51.276;6.390;2023-09-19T07:54:04;7.30;;;1.88;;
20997;SDS011;10657;51.276;6.390;2023-09-19T07:56:32;11.48;;;1.92;;
20997;SDS011;10657;51.276;6.390;2023-09-19T07:58:58;10.48;;;1.83;;
20997;SDS011;10657;51.276;6.390;2023-09-19T08:01:25;19.02;;;2.88;;
20997;SDS011;10657;51.276;6.390;2023-09-19T08:03:53;13.80;;;2.22;;
20997;SDS011;10657;51.276;6.390;2023-09-19T08:06:20;13.07;;;2.22;;
20997;SDS011;10657;51.276;6.390;2023-09-19T08:08:50;18.38;;;2.88;;
20997;SDS011;10657;51.276;6.390;2023-09-19T08:11:21;11.70;;;2.83;;
20997;SDS011;10657;51.276;6.390;2023-09-19T08:13:50;10.82;;;1.90;;
20997;SDS011;10657;51.276;6.390;2023-09-19T08:16:17;11.13;;;2.20;;
20997;SDS011;10657;51.276;6.390;2023-09-19T08:18:49;10.55;;;1.80;;
20997;SDS011;10657;51.276;6.390;2023-09-19T08:21:21;11.23;;;2.08;;
20997;SDS011;10657;51.276;6.390;2023-09-19T08:23:50;10.13;;;1.85;;
20997;SDS011;10657;51.276;6.390;2023-09-19T08:26:17;10.43;;;2.42;;
20997;SDS011;10657;51.276;6.390;2023-09-19T08:28:43;10.98;;;1.73;;
20997;SDS011;10657;51.276;6.390;2023-09-19T08:31:10;11.00;;;2.03;;
20997;SDS011;10657;51.276;6.390;2023-09-19T08:33:37;12.85;;;2.28;;
20997;SDS011;10657;51.276;6.390;2023-09-19T08:36:05;10.73;;;2.10;;
20997;SDS011;10657;51.276;6.390;2023-09-19T08:38:33;12.85;;;1.85;;
20997;SDS011;10657;51.276;6.390;2023-09-19T08:41:05;9.60;;;1.83;;
20997;SDS011;10657;51.276;6.390;2023-09-19T08:43:34;12.05;;;2.10;;
20997;SDS011;10657;51.276;6.390;2023-09-19T08:48:31;13.70;;;2.22;;
20997;SDS011;10657;51.276;6.390;2023-09-19T08:51:06;11.07;;;1.90;;
20997;SDS011;10657;51.276;6.390;2023-09-19T08:53:47;9.27;;;1.58;;
20997;SDS011;10657;51.276;6.390;2023-09-19T08:56:20;10.75;;;1.90;;
20997;SDS011;10657;51.276;6.390;2023-09-19T08:58:51;10.40;;;2.63;;
20997;SDS011;10657;51.276;6.390;2023-09-19T09:01:21;9.55;;;2.20;;
20997;SDS011;10657;51.276;6.390;2023-09-19T09:03:52;12.77;;;1.98;;
20997;SDS011;10657;51.276;6.390;2023-09-19T09:06:20;8.70;;;1.70;;
20997;SDS011;10657;51.276;6.390;2023-09-19T09:08:46;10.80;;;1.70;;
20997;SDS011;10657;51.276;6.390;2023-09-19T09:11:14;7.72;;;1.63;;
20997;SDS011;10657;51.276;6.390;2023-09-19T09:13:46;9.73;;;1.90;;
20997;SDS011;10657;51.276;6.390;2023-09-19T09:16:13;7.72;;;1.50;;
20997;SDS011;10657;51.276;6.390;2023-09-19T09:18:45;12.20;;;1.77;;
20997;SDS011;10657;51.276;6.390;2023-09-19T09:21:18;9.20;;;2.03;;
20997;SDS011;10657;51.276;6.390;2023-09-19T09:23:48;10.02;;;1.88;;
20997;SDS011;10657;51.276;6.390;2023-09-19T09:29:05;11.20;;;2.15;;
20997;SDS011;10657;51.276;6.390;2023-09-19T09:31:32;8.50;;;1.63;;
20997;SDS011;10657;51.276;6.390;2023-09-19T09:33:59;9.38;;;2.08;;
20997;SDS011;10657;51.276;6.390;2023-09-19T09:36:36;15.32;;;1.83;;
20997;SDS011;10657;51.276;6.390;2023-09-19T09:39:04;10.00;;;1.95;;
20997;SDS011;10657;51.276;6.390;2023-09-19T09:41:51;6.25;;;1.55;;
20997;SDS011;10657;51.276;6.390;2023-09-19T09:44:18;8.80;;;1.50;;
20997;SDS011;10657;51.276;6.390;2023-09-19T09:46:45;10.65;;;1.92;;
20997;SDS011;10657;51.276;6.390;2023-09-19T09:49:22;9.25;;;2.00;;
20997;SDS011;10657;51.276;6.390;2023-09-19T09:52:02;10.38;;;2.38;;
20997;SDS011;10657;51.276;6.390;2023-09-19T09:54:59;8.90;;;1.52;;
20997;SDS011;10657;51.276;6.390;2023-09-19T09:57:34;9.70;;;1.77;;
20997;SDS011;10657;51.276;6.390;2023-09-19T10:00:02;14.85;;;2.80;;
20997;SDS011;10657;51.276;6.390;2023-09-19T10:02:38;15.65;;;1.90;;
20997;SDS011;10657;51.276;6.390;2023-09-19T10:05:17;8.82;;;2.17;;
20997;SDS011;10657;51.276;6.390;2023-09-19T10:07:49;7.65;;;1.67;;
20997;SDS011;10657;51.276;6.390;2023-09-19T10:10:32;13.25;;;2.17;;
20997;SDS011;10657;51.276;6.390;2023-09-19T10:13:10;6.55;;;1.40;;
20997;SDS011;10657;51.276;6.390;2023-09-19T10:15:46;11.73;;;2.20;;
20997;SDS011;10657;51.276;6.390;2023-09-19T10:18:20;7.47;;;1.80;;
20997;SDS011;10657;51.276;6.390;2023-09-19T10:20:48;10.13;;;2.10;;
20997;SDS011;10657;51.276;6.390;2023-09-19T10:23:17;20.85;;;3.50;;
20997;SDS011;10657;51.276;6.390;2023-09-19T10:25:52;10.20;;;2.35;;
20997;SDS011;10657;51.276;6.390;2023-09-19T10:28:19;11.85;;;1.83;;
20997;SDS011;10657;51.276;6.390;2023-09-19T10:30:48;9.50;;;1.67;;
20997;SDS011;10657;51.276;6.390;2023-09-19T10:33:17;7.20;;;1.52;;
20997;SDS011;10657;51.276;6.390;2023-09-19T10:35:49;9.10;;;2.17;;
20997;SDS011;10657;51.276;6.390;2023-09-19T10:38:18;11.32;;;1.90;;
20997;SDS011;10657;51.276;6.390;2023-09-19T10:40:50;6.63;;;1.75;;
20997;SDS011;10657;51.276;6.390;2023-09-19T10:43:19;7.57;;;1.70;;
20997;SDS011;10657;51.276;6.390;2023-09-19T10:45:51;10.30;;;2.20;;
20997;SDS011;10657;51.276;6.390;2023-09-19T10:48:20;10.75;;;2.05;;
20997;SDS011;10657;51.276;6.390;2023-09-19T10:53:29;8.02;;;2.03;;
20997;SDS011;10657;51.276;6.390;2023-09-19T10:56:06;10.43;;;2.00;;
20997;SDS011;10657;51.276;6.390;2023-09-19T10:58:37;8.32;;;2.10;;
20997;SDS011;10657;51.276;6.390;2023-09-19T11:01:06;10.20;;;1.70;;
20997;SDS011;10657;51.276;6.390;2023-09-19T11:03:38;9.50;;;1.92;;
20997;SDS011;10657;51.276;6.390;2023-09-19T11:06:12;10.65;;;2.10;;
20997;SDS011;10657;51.276;6.390;2023-09-19T11:08:58;9.50;;;1.80;;
20997;SDS011;10657;51.276;6.390;2023-09-19T11:11:47;13.13;;;2.35;;
20997;SDS011;10657;51.276;6.390;2023-09-19T11:30:33;11.35;;;2.50;;
20997;SDS011;10657;51.276;6.390;2023-09-19T11:33:19;7.82;;;1.88;;
20997;SDS011;10657;51.276;6.390;2023-09-19T11:43:50;9.23;;;1.88;;
20997;SDS011;10657;51.276;6.390;2023-09-19T11:46:26;12.57;;;2.08;;
20997;SDS011;10657;51.276;6.390;2023-09-19T11:48:54;11.07;;;2.05;;
20997;SDS011;10657;51.276;6.390;2023-09-19T11:51:23;10.20;;;1.98;;
20997;SDS011;10657;51.276;6.390;2023-09-19T11:53:55;8.80;;;2.40;;
20997;SDS011;10657;51.276;6.390;2023-09-19T11:56:26;7.50;;;1.90;;
20997;SDS011;10657;51.276;6.390;2023-09-19T11:58:57;9.50;;;2.03;;
20997;SDS011;10657;51.276;6.390;2023-09-19T12:03:57;8.50;;;1.50;;
20997;SDS011;10657;51.276;6.390;2023-09-19T12:06:26;4.97;;;1.33;;
20997;SDS011;10657;51.276;6.390;2023-09-19T12:08:53;7.30;;;1.55;;
20997;SDS011;10657;51.276;6.390;2023-09-19T12:11:21;6.53;;;1.50;;
20997;SDS011;10657;51.276;6.390;2023-09-19T12:13:49;9.63;;;1.80;;
20997;SDS011;10657;51.276;6.390;2023-09-19T12:16:17;7.10;;;1.92;;
20997;SDS011;10657;51.276;6.390;2023-09-19T12:18:49;8.27;;;1.80;;
20997;SDS011;10657;51.276;6.390;2023-09-19T12:23:59;10.13;;;1.63;;
20997;SDS011;10657;51.276;6.390;2023-09-19T12:26:38;9.95;;;2.00;;
20997;SDS011;10657;51.276;6.390;2023-09-19T12:29:11;9.82;;;1.52;;
20997;SDS011;10657;51.276;6.390;2023-09-19T12:31:49;11.88;;;1.70;;
20997;SDS011;10657;51.276;6.390;2023-09-19T12:34:21;7.55;;;1.45;;
20997;SDS011;10657;51.276;6.390;2023-09-19T12:36:49;11.82;;;1.55;;
20997;SDS011;10657;51.276;6.390;2023-09-19T12:39:49;13.05;;;1.65;;
20997;SDS011;10657;51.276;6.390;2023-09-19T12:42:22;4.75;;;1.30;;
20997;SDS011;10657;51.276;6.390;2023-09-19T12:44:51;6.60;;;1.52;;
20997;SDS011;10657;51.276;6.390;2023-09-19T12:47:23;8.93;;;1.60;;
20997;SDS011;10657;51.276;6.390;2023-09-19T12:50:06;6.70;;;1.25;;
20997;SDS011;10657;51.276;6.390;2023-09-19T12:52:43;8.50;;;1.80;;
20997;SDS011;10657;51.276;6.390;2023-09-19T12:55:19;8.50;;;1.70;;
20997;SDS011;10657;51.276;6.390;2023-09-19T12:58:00;6.45;;;1.20;;
20997;SDS011;10657;51.276;6.390;2023-09-19T13:00:35;7.25;;;1.63;;
20997;SDS011;10657;51.276;6.390;2023-09-19T13:03:13;7.28;;;1.63;;
20997;SDS011;10657;51.276;6.390;2023-09-19T13:05:50;6.85;;;1.30;;
20997;SDS011;10657;51.276;6.390;2023-09-19T13:08:19;8.80;;;1.50;;
20997;SDS011;10657;51.276;6.390;2023-09-19T13:13:48;11.40;;;1.40;;
20997;SDS011;10657;51.276;6.390;2023-09-19T13:16:20;8.95;;;1.20;;
20997;SDS011;10657;51.276;6.390;2023-09-19T13:18:52;5.22;;;1.20;;
20997;SDS011;10657;51.276;6.390;2023-09-19T13:21:30;5.60;;;1.13;;
20997;SDS011;10657;51.276;6.390;2023-09-19T13:26:46;6.50;;;1.02;;
20997;SDS011;10657;51.276;6.390;2023-09-19T13:29:12;4.32;;;0.95;;
20997;SDS011;10657;51.276;6.390;2023-09-19T13:31:49;5.22;;;1.33;;
20997;SDS011;10657;51.276;6.390;2023-09-19T13:34:17;5.43;;;1.08;;
20997;SDS011;10657;51.276;6.390;2023-09-19T13:36:44;6.13;;;1.50;;
20997;SDS011;10657;51.276;6.390;2023-09-19T13:39:12;7.07;;;1.17;;
20997;SDS011;10657;51.276;6.390;2023-09-19T13:41:39;5.07;;;1.13;;
20997;SDS011;10657;51.276;6.390;2023-09-19T13:44:06;4.18;;;0.98;;
20997;SDS011;10657;51.276;6.390;2023-09-19T13:46:33;6.03;;;0.95;;
20997;SDS011;10657;51.276;6.390;2023-09-19T13:49:01;8.73;;;0.90;;
20997;SDS011;10657;51.276;6.390;2023-09-19T13:51:32;3.33;;;1.02;;
20997;SDS011;10657;51.276;6.390;2023-09-19T13:53:59;8.95;;;1.38;;
20997;SDS011;10657;51.276;6.390;2023-09-19T13:56:26;5.30;;;0.80;;
20997;SDS011;10657;51.276;6.390;2023-09-19T13:58:56;8.45;;;1.02;;
20997;SDS011;10657;51.276;6.390;2023-09-19T14:01:23;5.13;;;1.20;;
20997;SDS011;10657;51.276;6.390;2023-09-19T14:03:50;4.70;;;0.90;;
20997;SDS011;10657;51.276;6.390;2023-09-19T14:06:17;6.88;;;0.93;;
20997;SDS011;10657;51.276;6.390;2023-09-19T14:08:44;5.28;;;0.88;;
20997;SDS011;10657;51.276;6.390;2023-09-19T14:11:14;3.85;;;0.70;;
20997;SDS011;10657;51.276;6.390;2023-09-19T14:13:42;4.88;;;0.95;;
20997;SDS011;10657;51.276;6.390;2023-09-19T14:16:15;4.93;;;0.93;;
20997;SDS011;10657;51.276;6.390;2023-09-19T14:18:44;3.17;;;0.90;;
20997;SDS011;10657;51.276;6.390;2023-09-19T14:21:12;4.47;;;0.85;;
20997;SDS011;10657;51.276;6.390;2023-09-19T14:23:40;5.13;;;0.90;;
20997;SDS011;10657;51.276;6.390;2023-09-19T14:26:11;4.10;;;0.80;;
20997;SDS011;10657;51.276;6.390;2023-09-19T14:28:38;4.55;;;0.93;;
20997;SDS011;10657;51.276;6.390;2023-09-19T14:31:09;5.20;;;0.90;;
20997;SDS011;10657;51.276;6.390;2023-09-19T14:33:37;3.22;;;0.85;;
20997;SDS011;10657;51.276;6.390;2023-09-19T14:36:05;7.22;;;1.02;;
20997;SDS011;10657;51.276;6.390;2023-09-19T14:38:33;5.68;;;0.75;;
20997;SDS011;10657;51.276;6.390;2023-09-19T14:41:01;4.43;;;0.85;;
20997;SDS011;10657;51.276;6.390;2023-09-19T14:43:28;5.90;;;1.45;;
20997;SDS011;10657;51.276;6.390;2023-09-19T14:45:56;6.35;;;1.02;;
20997;SDS011;10657;51.276;6.390;2023-09-19T14:48:26;3.10;;;1.20;;
20997;SDS011;10657;51.276;6.390;2023-09-19T14:50:52;5.25;;;0.93;;
20997;SDS011;10657;51.276;6.390;2023-09-19T14:53:21;5.93;;;1.00;;
20997;SDS011;10657;51.276;6.390;2023-09-19T14:55:48;3.95;;;0.98;;
20997;SDS011;10657;51.276;6.390;2023-09-19T14:58:18;7.18;;;0.85;;
20997;SDS011;10657;51.276;6.390;2023-09-19T15:00:44;3.60;;;0.70;;
20997;SDS011;10657;51.276;6.390;2023-09-19T15:03:11;6.78;;;1.27;;
20997;SDS011;10657;51.276;6.390;2023-09-19T15:05:40;3.72;;;0.80;;
20997;SDS011;10657;51.276;6.390;2023-09-19T15:08:06;5.10;;;1.00;;
20997;SDS011;10657;51.276;6.390;2023-09-19T15:10:33;4.28;;;0.73;;
20997;SDS011;10657;51.276;6.390;2023-09-19T15:13:00;6.28;;;1.17;;
20997;SDS011;10657;51.276;6.390;2023-09-19T15:15:27;4.25;;;0.93;;
20997;SDS011;10657;51.276;6.390;2023-09-19T15:17:54;4.93;;;1.02;;
20997;SDS011;10657;51.276;6.390;2023-09-19T15:20:21;4.63;;;0.98;;
20997;SDS011;10657;51.276;6.390;2023-09-19T15:22:47;5.78;;;0.93;;
20997;SDS011;10657;51.276;6.390;2023-09-19T15:25:14;4.65;;;0.90;;
20997;SDS011;10657;51.276;6.390;2023-09-19T15:27:41;5.18;;;0.88;;
20997;SDS011;10657;51.276;6.390;2023-09-19T15:30:10;7.28;;;1.35;;
20997;SDS011;10657;51.276;6.390;2023-09-19T15:32:37;5.75;;;0.93;;
20997;SDS011;10657;51.276;6.390;2023-09-19T15:35:04;3.15;;;0.68;;
20997;SDS011;10657;51.276;6.390;2023-09-19T15:37:32;3.45;;;0.80;;
20997;SDS011;10657;51.276;6.390;2023-09-19T15:39:58;7.18;;;1.05;;
20997;SDS011;10657;51.276;6.390;2023-09-19T15:42:25;8.63;;;0.93;;
20997;SDS011;10657;51.276;6.390;2023-09-19T15:44:51;8.45;;;0.75;;
20997;SDS011;10657;51.276;6.390;2023-09-19T15:47:18;5.40;;;1.05;;
20997;SDS011;10657;51.276;6.390;2023-09-19T15:49:47;5.68;;;0.93;;
20997;SDS011;10657;51.276;6.390;2023-09-19T15:52:16;2.78;;;0.70;;
20997;SDS011;10657;51.276;6.390;2023-09-19T15:54:43;10.60;;;1.33;;